Time;durP1;ratioP1;P1;durP2;ratioP2;P2;SDS_P1;SDS_P2;PMS_P1;PMS_P2;Temp;Humidity;BMP_temperature;BMP_pressure;BME280_temperature;BME280_humidity;BME280_pressure;Samples;Min_cycle;Max_cycle;Signal;HPM_P1;HPM_P2
2023/01/02 04:57:44;;;;;;;20.27;14.48;;;13.70;99.90;;;;;;4589500;19;20019;-28
2023/01/02 04:59:16;;;;;;;21.55;15.07;;;13.70;99.90;;;;;;4590896;19;20017;-28
2023/01/02 05:00:49;;;;;;;22.42;17.08;;;13.70;99.90;;;;;;4591529;19;20044;-28
2023/01/02 05:02:20;;;;;;;25.60;19.17;;;13.00;99.90;;;;;;4590345;19;20372;-27
2023/01/02 05:03:52;;;;;;;;;;;12.20;99.90;;;;;;4591557;19;20461;-27
2023/01/02 05:05:23;;;;;;;26.07;19.80;;;11.80;99.90;;;;;;4590055;19;19919;-27
2023/01/02 05:06:54;;;;;;;28.80;20.60;;;11.60;99.90;;;;;;4589422;19;20019;-29
2023/01/02 05:08:27;;;;;;;26.48;21.40;;;11.50;99.90;;;;;;4588879;19;20022;-28
2023/01/02 05:10:00;;;;;;;24.47;19.67;;;11.50;99.90;;;;;;4589353;19;20018;-28
2023/01/02 05:11:31;;;;;;;28.02;20.63;;;11.50;99.90;;;;;;4591517;19;20020;-29
2023/01/02 05:13:03;;;;;;;25.90;19.80;;;11.40;99.90;;;;;;4591215;19;20030;-27
2023/01/02 05:14:34;;;;;;;24.45;19.08;;;11.40;99.90;;;;;;4590768;19;20560;-28
2023/01/02 05:16:06;;;;;;;26.08;19.58;;;11.40;99.90;;;;;;4590663;19;20015;-28
2023/01/02 05:17:38;;;;;;;27.67;21.15;;;11.40;99.90;;;;;;4590205;19;20014;-27
2023/01/02 05:19:11;;;;;;;29.63;22.13;;;11.40;99.90;;;;;;4588466;19;20011;-30
2023/01/02 05:20:42;;;;;;;23.97;18.83;;;11.40;99.90;;;;;;4589060;19;20007;-28
2023/01/02 05:24:05;;;;;;;25.57;19.33;;;11.40;99.90;;;;;;4589316;19;20409;-32
2023/01/02 05:25:36;;;;;;;24.25;18.90;;;11.40;99.90;;;;;;4588759;19;21045;-32
2023/01/02 05:27:08;;;;;;;28.60;19.73;;;11.40;99.90;;;;;;4588845;19;20022;-32
2023/01/02 05:28:40;;;;;;;24.60;17.50;;;11.40;99.90;;;;;;4591555;19;20010;-32
2023/01/02 05:30:11;;;;;;;21.98;17.30;;;11.40;99.90;;;;;;4586553;19;20485;-27
2023/01/02 05:31:43;;;;;;;24.20;17.77;;;11.30;99.90;;;;;;4588647;19;20119;-30
2023/01/02 05:33:14;;;;;;;22.50;17.63;;;11.30;99.90;;;;;;4587895;19;20108;-27
2023/01/02 05:34:45;;;;;;;24.45;17.75;;;11.30;99.90;;;;;;4589599;19;20047;-27
2023/01/02 05:36:16;;;;;;;22.02;16.65;;;11.30;99.90;;;;;;4587719;19;20053;-29
2023/01/02 05:37:47;;;;;;;21.73;16.25;;;11.30;99.90;;;;;;4587089;19;20014;-28
2023/01/02 05:39:18;;;;;;;24.67;17.50;;;11.20;99.90;;;;;;4589315;19;20015;-28
2023/01/02 05:40:57;;;;;;;24.02;16.50;;;11.20;99.90;;;;;;4590296;19;20086;-28
2023/01/02 05:42:28;;;;;;;23.47;16.97;;;11.30;99.90;;;;;;4589731;19;20476;-32
2023/01/02 05:44:00;;;;;;;24.30;18.40;;;11.20;99.90;;;;;;4590781;19;20007;-28
2023/01/02 05:45:31;;;;;;;26.20;18.88;;;11.20;99.90;;;;;;4590902;19;20070;-27
2023/01/02 05:47:02;;;;;;;24.75;19.17;;;11.20;99.90;;;;;;4590516;19;20018;-31
2023/01/02 05:48:33;;;;;;;26.77;18.83;;;11.20;99.90;;;;;;4590153;19;20018;-27
2023/01/02 05:50:05;;;;;;;28.55;20.05;;;11.20;99.90;;;;;;4589449;19;20047;-30
2023/01/02 05:51:36;;;;;;;29.77;20.15;;;11.20;99.90;;;;;;4588916;19;20021;-29
2023/01/02 05:53:07;;;;;;;27.50;20.92;;;11.20;99.90;;;;;;4589345;19;20015;-27
2023/01/02 05:54:39;;;;;;;26.98;19.13;;;11.20;99.90;;;;;;4590509;19;20022;-31
2023/01/02 05:56:12;;;;;;;27.73;19.45;;;11.20;99.90;;;;;;4590103;19;20334;-29
2023/01/02 05:57:44;;;;;;;27.13;19.80;;;11.20;99.90;;;;;;4587590;19;20014;-31
2023/01/02 05:59:15;;;;;;;24.88;19.73;;;11.20;99.90;;;;;;4589316;19;20556;-29
2023/01/02 06:00:46;;;;;;;26.77;19.95;;;11.20;99.90;;;;;;4589346;19;20070;-30
2023/01/02 06:02:18;;;;;;;25.13;19.33;;;11.10;99.90;;;;;;4587819;19;20014;-29
2023/01/02 06:03:50;;;;;;;26.48;19.05;;;11.10;99.90;;;;;;4589082;19;20082;-28
2023/01/02 06:05:22;;;;;;;27.57;19.53;;;11.10;99.90;;;;;;4587226;19;20394;-28
2023/01/02 06:06:53;;;;;;;25.77;19.45;;;11.10;99.90;;;;;;4587852;19;20015;-27
2023/01/02 06:08:24;;;;;;;23.92;17.15;;;11.10;99.90;;;;;;4589189;19;20014;-27
2023/01/02 06:09:55;;;;;;;26.42;18.38;;;11.10;99.90;;;;;;4590248;19;20038;-32
2023/01/02 06:11:27;;;;;;;25.80;17.73;;;11.10;99.90;;;;;;4589916;19;20010;-27
2023/01/02 06:12:58;;;;;;;23.90;17.88;;;11.10;99.90;;;;;;4589382;19;20018;-26
2023/01/02 06:14:30;;;;;;;21.25;17.50;;;11.10;99.90;;;;;;4589245;19;20358;-26
2023/01/02 06:16:01;;;;;;;24.15;17.95;;;11.10;99.90;;;;;;4589207;19;20011;-27
2023/01/02 06:17:33;;;;;;;23.60;17.43;;;11.10;99.90;;;;;;4588580;19;20022;-25
2023/01/02 06:19:05;;;;;;;22.65;18.20;;;11.10;99.90;;;;;;4587909;19;20456;-28
2023/01/02 06:20:38;;;;;;;22.77;17.53;;;11.10;99.90;;;;;;4587906;19;20082;-26
2023/01/02 06:22:08;;;;;;;24.88;19.30;;;11.10;99.90;;;;;;4588020;19;20337;-28
2023/01/02 06:23:40;;;;;;;25.30;18.63;;;11.10;99.90;;;;;;4587696;19;20018;-30
2023/01/02 06:25:11;;;;;;;23.05;17.92;;;11.10;99.90;;;;;;4590262;19;20034;-29
2023/01/02 06:26:42;;;;;;;24.15;17.42;;;11.10;99.90;;;;;;4589789;19;20364;-30
2023/01/02 06:28:13;;;;;;;25.40;17.92;;;11.10;99.90;;;;;;4590083;19;20019;-28
2023/01/02 06:29:44;;;;;;;22.90;18.17;;;11.10;99.90;;;;;;4588783;19;20014;-28
2023/01/02 06:31:16;;;;;;;21.42;16.25;;;11.20;99.90;;;;;;4589952;19;20013;-29
2023/01/02 06:32:49;;;;;;;22.23;17.00;;;11.50;99.90;;;;;;4589188;19;20370;-28
2023/01/02 06:34:20;;;;;;;20.48;15.82;;;11.80;99.90;;;;;;4589130;19;20014;-29
2023/01/02 06:36:05;;;;;;;20.65;16.33;;;12.00;99.90;;;;;;4589322;19;20018;-29
2023/01/02 06:37:40;;;;;;;25.30;17.20;;;12.20;99.90;;;;;;4587064;19;20014;-28
2023/01/02 06:39:12;;;;;;;22.83;16.87;;;12.30;99.90;;;;;;4588685;19;20345;-28
2023/01/02 06:40:54;;;;;;;20.77;16.10;;;12.40;99.90;;;;;;4589226;19;20465;-34
2023/01/02 06:42:27;;;;;;;23.40;16.37;;;12.50;99.90;;;;;;4588412;19;20006;-26
2023/01/02 06:43:58;;;;;;;21.23;16.08;;;12.60;99.90;;;;;;4588313;19;20346;-29
2023/01/02 06:45:31;;;;;;;21.27;15.33;;;12.70;99.90;;;;;;4592386;19;20515;-30
2023/01/02 06:47:03;;;;;;;27.33;16.43;;;12.70;99.90;;;;;;4592968;19;20023;-33
2023/01/02 06:48:34;;;;;;;20.58;14.77;;;12.70;99.90;;;;;;4593184;19;20029;-26
2023/01/02 06:50:07;;;;;;;23.73;15.67;;;12.80;99.90;;;;;;4594059;19;20017;-30
2023/01/02 06:51:39;;;;;;;20.73;14.73;;;12.80;99.90;;;;;;4593942;19;20011;-29
2023/01/02 06:53:11;;;;;;;22.20;15.90;;;12.80;99.90;;;;;;4593970;19;20007;-31
2023/01/02 06:54:43;;;;;;;20.23;15.48;;;12.80;99.90;;;;;;4593272;19;20021;-27
2023/01/02 06:56:16;;;;;;;23.38;16.70;;;12.90;99.90;;;;;;4591071;19;20011;-29
2023/01/02 07:10:10;;;;;;;23.83;18.58;;;13.10;99.90;;;;;;4593285;19;20058;-27
2023/01/02 07:11:41;;;;;;;27.30;22.20;;;13.20;99.90;;;;;;4593126;19;20037;-29
2023/01/02 07:13:12;;;;;;;31.27;27.88;;;13.20;99.90;;;;;;4592147;19;20015;-27
2023/01/02 07:14:44;;;;;;;30.33;23.48;;;13.20;99.90;;;;;;4592645;19;20011;-28
2023/01/02 07:16:16;;;;;;;24.55;18.98;;;13.20;99.90;;;;;;4593840;19;20015;-27
2023/01/02 07:17:47;;;;;;;21.70;15.93;;;13.30;99.90;;;;;;4593016;19;20006;-32
2023/01/02 07:19:18;;;;;;;23.98;16.30;;;13.30;99.90;;;;;;4592442;19;20015;-28
2023/01/02 07:20:53;;;;;;;20.00;14.55;;;13.30;99.90;;;;;;4593409;19;20018;-26
2023/01/02 07:22:24;;;;;;;19.98;14.38;;;13.30;99.90;;;;;;4591389;19;20017;-30
2023/01/02 07:23:55;;;;;;;22.30;14.25;;;13.30;99.90;;;;;;4592377;19;20010;-30
2023/01/02 07:25:27;;;;;;;20.52;13.55;;;13.20;99.90;;;;;;4593082;19;20006;-26
2023/01/02 07:26:59;;;;;;;17.30;13.48;;;13.20;99.90;;;;;;4592553;19;20061;-29
2023/01/02 07:28:31;;;;;;;19.13;13.75;;;13.20;99.90;;;;;;4591830;19;20006;-25
2023/01/02 07:30:03;;;;;;;18.00;13.60;;;13.20;99.90;;;;;;4591992;19;20010;-27
2023/01/02 07:31:34;;;;;;;22.65;14.43;;;13.20;99.90;;;;;;4592834;19;20024;-27
2023/01/02 07:33:06;;;;;;;21.55;14.98;;;13.20;99.90;;;;;;4591343;19;20049;-29
2023/01/02 07:34:37;;;;;;;23.27;16.15;;;13.20;99.90;;;;;;4592163;19;20022;-27
2023/01/02 07:36:16;;;;;;;23.50;14.10;;;13.20;99.90;;;;;;4592635;19;20341;-26
2023/01/02 07:37:48;;;;;;;18.60;12.45;;;13.20;99.90;;;;;;4591653;19;20086;-27
2023/01/02 07:39:21;;;;;;;17.17;12.75;;;13.20;99.90;;;;;;4592280;19;20018;-30
2023/01/02 07:40:52;;;;;;;19.20;13.10;;;13.20;99.90;;;;;;4592655;19;20017;-28
2023/01/02 07:42:24;;;;;;;21.50;15.73;;;13.20;99.90;;;;;;4592076;19;20014;-31
2023/01/02 07:43:56;;;;;;;20.90;15.00;;;13.20;99.90;;;;;;4592327;19;20022;-29
2023/01/02 07:45:27;;;;;;;20.70;14.57;;;13.20;99.90;;;;;;4592793;19;20018;-27
2023/01/02 07:46:59;;;;;;;21.02;14.35;;;13.30;99.90;;;;;;4591209;19;20520;-26
2023/01/02 07:48:31;;;;;;;19.08;13.55;;;13.30;99.90;;;;;;4591084;19;20499;-28
2023/01/02 07:50:03;;;;;;;18.02;12.93;;;13.30;99.90;;;;;;4591907;19;20015;-29
2023/01/02 07:51:34;;;;;;;17.52;13.43;;;13.30;99.90;;;;;;4593035;19;20034;-28
2023/01/02 07:53:05;;;;;;;18.15;13.18;;;13.30;99.90;;;;;;4591119;19;20011;-33
2023/01/02 07:54:37;;;;;;;16.15;12.50;;;13.30;99.90;;;;;;4592202;19;20464;-28
2023/01/02 07:56:08;;;;;;;19.48;13.63;;;13.30;99.90;;;;;;4590126;19;20040;-27
2023/01/02 07:57:40;;;;;;;17.83;13.07;;;13.30;99.90;;;;;;4589522;19;20021;-26
2023/01/02 07:59:11;;;;;;;18.42;15.20;;;13.30;99.90;;;;;;4591506;19;20011;-28
2023/01/02 08:00:42;;;;;;;22.02;19.70;;;13.30;99.90;;;;;;4591137;19;20026;-32
2023/01/02 08:02:13;;;;;;;25.80;23.13;;;13.30;99.90;;;;;;4591195;19;20014;-36
2023/01/02 08:03:44;;;;;;;22.85;20.25;;;13.30;99.90;;;;;;4589371;19;20042;-29
2023/01/02 08:05:16;;;;;;;23.65;15.68;;;13.30;99.90;;;;;;4589955;19;20035;-31
2023/01/02 08:06:47;;;;;;;;;;;13.30;99.90;;;;;;4590235;19;20011;-35
2023/01/02 08:08:18;;;;;;;18.98;11.85;;;13.30;99.90;;;;;;4590210;19;20329;-31
2023/01/02 08:13:21;;;;;;;21.60;14.27;;;13.30;99.90;;;;;;4588605;19;19998;-30
2023/01/02 08:14:53;;;;;;;;;;;13.30;99.90;;;;;;4590686;19;20480;-28
2023/01/02 08:16:24;;;;;;;17.80;12.88;;;13.30;99.90;;;;;;4589304;19;20261;-37
2023/01/02 08:17:57;;;;;;;17.40;12.70;;;13.30;99.90;;;;;;4589493;19;20010;-32
2023/01/02 08:19:29;;;;;;;20.13;12.52;;;13.40;99.90;;;;;;4589708;19;20021;-30
2023/01/02 08:21:00;;;;;;;18.85;12.38;;;13.40;99.90;;;;;;4589924;19;20006;-31
2023/01/02 08:22:32;;;;;;;16.30;12.23;;;13.30;99.90;;;;;;4589820;19;20367;-29
2023/01/02 08:24:06;;;;;;;17.52;11.65;;;13.40;99.90;;;;;;4589554;19;20018;-29
2023/01/02 08:25:37;;;;;;;15.80;10.73;;;13.40;99.90;;;;;;4589547;19;20036;-28
2023/01/02 08:27:10;;;;;;;16.58;11.27;;;13.40;99.90;;;;;;4589536;19;20073;-29
2023/01/02 08:28:42;;;;;;;14.23;10.85;;;13.40;99.90;;;;;;4589531;19;20014;-28
2023/01/02 08:30:13;;;;;;;16.35;11.52;;;13.40;99.90;;;;;;4589415;19;20017;-28
2023/01/02 08:58:02;;;;;;;18.30;11.57;;;13.50;99.90;;;;;;4588020;19;20017;-31
2023/01/02 08:59:33;;;;;;;;;;;13.50;99.90;;;;;;4591369;19;20022;-27
2023/01/02 09:01:04;;;;;;;15.23;11.38;;;13.50;99.90;;;;;;4590962;19;19919;-30
2023/01/02 09:02:37;;;;;;;16.38;9.90;;;13.50;99.90;;;;;;4591072;19;20460;-28
2023/01/02 09:04:09;;;;;;;13.70;9.73;;;13.50;99.90;;;;;;4590530;19;20015;-32
2023/01/02 09:05:59;;;;;;;15.05;10.30;;;13.50;99.90;;;;;;4591060;19;20037;-29
2023/01/02 09:07:31;;;;;;;14.95;10.43;;;13.50;99.90;;;;;;4591088;19;20020;-28
2023/01/02 09:09:03;;;;;;;15.63;10.27;;;13.50;99.90;;;;;;4591619;19;20041;-33
2023/01/02 09:10:34;;;;;;;15.52;9.45;;;13.50;99.90;;;;;;4590608;19;20031;-29
2023/01/02 09:12:05;;;;;;;11.75;8.73;;;13.50;99.90;;;;;;4590604;19;20019;-30
2023/01/02 09:20:39;;;;;;;11.85;8.60;;;13.50;99.90;;;;;;4588902;19;20003;-32
2023/01/02 09:22:10;;;;;;;13.13;9.10;;;13.50;99.90;;;;;;4590273;19;20018;-30
2023/01/02 09:23:42;;;;;;;12.40;9.07;;;13.50;99.90;;;;;;4591098;19;20017;-31
2023/01/02 09:25:27;;;;;;;15.38;9.23;;;13.40;99.90;;;;;;4590525;19;19998;-30
2023/01/02 09:27:00;;;;;;;13.25;9.95;;;13.40;99.90;;;;;;4589208;19;20082;-29
2023/01/02 09:30:31;;;;;;;13.88;9.38;;;13.40;99.90;;;;;;4588622;19;20018;-31
2023/01/02 09:32:08;;;;;;;13.73;9.13;;;13.40;99.90;;;;;;4590062;19;20029;-31
2023/01/02 09:33:43;;;;;;;12.75;9.68;;;13.40;99.90;;;;;;4589567;19;20089;-30
2023/01/02 09:35:16;;;;;;;15.82;11.68;;;13.40;99.90;;;;;;4588998;19;20031;-29
2023/01/02 09:36:51;;;;;;;12.60;9.95;;;13.30;99.90;;;;;;4589513;19;20021;-31
2023/01/02 09:38:23;;;;;;;13.63;9.15;;;13.40;99.90;;;;;;4590366;19;20054;-28
2023/01/02 09:39:55;;;;;;;13.57;8.88;;;13.40;99.90;;;;;;4589658;19;20042;-34
2023/01/02 09:41:29;;;;;;;;;;;13.40;99.90;;;;;;4590831;19;20011;-32
2023/01/02 09:43:04;;;;;;;13.88;9.60;;;13.40;99.90;;;;;;4588881;19;19951;-29
2023/01/02 09:44:38;;;;;;;13.45;9.80;;;13.40;99.90;;;;;;4589983;19;20464;-30
2023/01/02 09:46:35;;;;;;;11.27;9.48;;;13.40;99.90;;;;;;4590484;19;20025;-32
2023/01/02 09:48:07;;;;;;;12.55;9.07;;;13.40;99.90;;;;;;4589912;19;20026;-28
2023/01/02 10:19:43;;;;;;;12.52;9.55;;;13.60;99.90;;;;;;4591455;19;20010;-29
2023/01/02 10:21:19;;;;;;;13.75;9.55;;;13.60;99.90;;;;;;4593920;19;20405;-31
2023/01/02 10:23:22;;;;;;;13.73;9.10;;;13.60;99.90;;;;;;4592520;19;20027;-29
2023/01/02 10:25:01;;;;;;;14.05;9.30;;;13.60;99.90;;;;;;4593626;19;20103;-35
2023/01/02 10:26:36;;;;;;;16.38;10.93;;;13.60;99.90;;;;;;4594056;19;20014;-30
2023/01/02 10:28:17;;;;;;;14.60;9.15;;;13.50;99.90;;;;;;4594778;19;20011;-31
2023/01/02 10:29:59;;;;;;;14.77;9.55;;;13.60;99.90;;;;;;4593528;19;20445;-30
2023/01/02 10:31:46;;;;;;;14.68;9.20;;;13.60;99.90;;;;;;4592777;19;20027;-30
2023/01/02 10:33:22;;;;;;;12.70;9.00;;;13.60;99.90;;;;;;4591816;19;20022;-33
2023/01/02 10:35:05;;;;;;;13.02;8.77;;;13.60;99.90;;;;;;4592846;19;20342;-31
2023/01/02 10:36:41;;;;;;;12.45;9.15;;;13.60;99.90;;;;;;4593093;19;20010;-29
2023/01/02 10:38:18;;;;;;;13.32;8.65;;;13.60;99.90;;;;;;4593845;19;20468;-28
2023/01/02 10:39:50;;;;;;;11.00;8.25;;;13.60;99.90;;;;;;4592757;19;20014;-29
2023/01/02 10:41:23;;;;;;;10.75;8.57;;;13.60;99.90;;;;;;4592561;19;20093;-30
2023/01/02 10:42:56;;;;;;;11.52;8.38;;;13.60;99.90;;;;;;4592334;19;20011;-34
2023/01/02 10:44:30;;;;;;;11.60;8.02;;;13.60;99.90;;;;;;4594906;19;20021;-32
2023/01/02 10:46:02;;;;;;;11.63;7.72;;;13.60;99.90;;;;;;4592995;19;20011;-33
2023/01/02 10:47:37;;;;;;;11.48;7.82;;;13.60;99.90;;;;;;4592141;19;20014;-29
2023/01/02 10:49:09;;;;;;;12.20;8.20;;;13.70;99.90;;;;;;4593724;19;20007;-29
2023/01/02 10:50:56;;;;;;;12.25;8.05;;;13.70;99.90;;;;;;4592456;19;20023;-29
2023/01/02 10:52:38;;;;;;;11.60;7.65;;;13.70;99.90;;;;;;4593229;19;20081;-32
2023/01/02 10:54:14;;;;;;;12.27;7.63;;;13.70;99.90;;;;;;4592693;19;20007;-37
2023/01/02 10:55:45;;;;;;;9.95;7.05;;;13.70;99.90;;;;;;4591922;19;20011;-32
2023/01/02 10:57:40;;;;;;;12.95;8.98;;;13.80;99.90;;;;;;4593339;19;20003;-31
2023/01/02 10:59:23;;;;;;;9.77;6.65;;;13.80;99.90;;;;;;4593127;19;20459;-29
2023/01/02 11:01:17;;;;;;;12.55;7.85;;;13.80;99.90;;;;;;4592723;19;20500;-30
2023/01/02 11:03:12;;;;;;;12.77;10.27;;;13.80;99.90;;;;;;4590833;19;20018;-30
2023/01/02 11:05:05;;;;;;;24.23;19.15;;;13.70;99.90;;;;;;4591940;19;20366;-28
2023/01/02 11:06:58;;;;;;;18.73;14.40;;;13.80;99.90;;;;;;4591606;19;20014;-30
2023/01/02 11:08:37;;;;;;;14.45;11.27;;;13.70;99.90;;;;;;4591985;19;20029;-30
2023/01/02 11:10:21;;;;;;;13.43;9.80;;;13.80;99.90;;;;;;4592505;19;20014;-31
2023/01/02 11:12:34;;;;;;;11.63;9.45;;;13.70;99.90;;;;;;4593160;19;20022;-30
2023/01/02 11:14:15;;;;;;;13.93;10.57;;;13.80;99.90;;;;;;4590787;19;20025;-33
2023/01/02 11:16:02;;;;;;;16.05;12.15;;;13.80;99.90;;;;;;4591058;19;20011;-32
2023/01/02 11:17:42;;;;;;;11.43;9.25;;;13.80;99.90;;;;;;4590131;19;20011;-31
2023/01/02 11:19:18;;;;;;;14.45;9.82;;;13.80;99.90;;;;;;4589797;19;20367;-28
2023/01/02 11:20:52;;;;;;;12.02;9.13;;;13.80;99.90;;;;;;4589314;19;20488;-33
2023/01/02 11:22:33;;;;;;;13.68;9.13;;;13.70;99.90;;;;;;4590742;19;20010;-31
2023/01/02 11:24:05;;;;;;;12.80;9.10;;;13.70;99.90;;;;;;4590839;19;20010;-34
2023/01/02 11:25:40;;;;;;;11.73;7.97;;;13.70;99.90;;;;;;4590280;19;20019;-29
2023/01/02 11:27:12;;;;;;;13.63;8.82;;;13.70;99.90;;;;;;4590758;19;20010;-30
2023/01/02 11:28:43;;;;;;;12.75;9.18;;;13.70;99.90;;;;;;4590422;19;20026;-28
2023/01/02 11:30:23;;;;;;;15.95;10.75;;;13.70;99.90;;;;;;4587446;19;20007;-28
2023/01/02 11:31:56;;;;;;;13.80;9.25;;;13.70;99.90;;;;;;4590240;19;20026;-33
2023/01/02 11:33:34;;;;;;;12.18;9.23;;;13.80;99.90;;;;;;4590327;19;20358;-29
2023/01/02 11:35:48;;;;;;;13.00;9.63;;;13.80;99.90;;;;;;4590542;19;20419;-29
2023/01/02 11:37:19;;;;;;;14.10;10.30;;;13.80;99.90;;;;;;4589751;19;20371;-34
2023/01/02 11:38:59;;;;;;;13.00;9.65;;;13.80;99.90;;;;;;4590392;19;20021;-30
2023/01/02 11:40:37;;;;;;;12.80;9.30;;;13.90;99.90;;;;;;4588788;19;20003;-31
2023/01/02 11:43:59;;;;;;;14.85;10.52;;;13.90;99.90;;;;;;4590413;19;20037;-29
2023/01/02 11:45:30;;;;;;;14.15;10.35;;;13.90;99.90;;;;;;4589756;19;20011;-28
2023/01/02 11:47:02;;;;;;;;;;;13.90;99.90;;;;;;4591709;19;20010;-36
2023/01/02 11:48:33;;;;;;;12.27;9.63;;;13.90;99.90;;;;;;4590072;19;19998;-29
2023/01/02 11:50:04;;;;;;;12.77;9.40;;;13.90;99.90;;;;;;4590177;19;20035;-34
2023/01/02 11:51:37;;;;;;;12.05;9.55;;;13.90;99.90;;;;;;4589270;19;20556;-30
2023/01/02 11:53:11;;;;;;;13.77;9.38;;;13.90;99.90;;;;;;4589960;19;20018;-28
2023/01/02 11:54:50;;;;;;;11.55;8.73;;;13.90;99.90;;;;;;4589841;19;20006;-30
2023/01/02 11:56:26;;;;;;;13.57;9.43;;;13.90;99.90;;;;;;4589754;19;20015;-31
2023/01/02 11:58:14;;;;;;;13.35;8.80;;;13.90;99.90;;;;;;4590702;19;20018;-33
2023/01/02 11:59:46;;;;;;;14.13;12.07;;;13.90;99.90;;;;;;4590408;19;20018;-29
2023/01/02 12:01:42;;;;;;;14.97;11.90;;;13.00;99.90;;;;;;4589558;19;20029;-29
2023/01/02 12:03:22;;;;;;;15.13;10.87;;;12.40;99.90;;;;;;4589780;19;20022;-28
2023/01/02 12:04:54;;;;;;;11.33;9.20;;;12.30;99.90;;;;;;4589923;19;20011;-32
2023/01/02 12:06:50;;;;;;;16.35;11.20;;;12.30;99.90;;;;;;4589705;19;20015;-28
2023/01/02 12:08:59;;;;;;;19.80;13.87;;;12.30;99.90;;;;;;4590725;19;20027;-28
2023/01/02 12:10:46;;;;;;;18.30;12.90;;;12.30;99.90;;;;;;4591316;19;20018;-28
2023/01/02 12:12:54;;;;;;;17.10;12.07;;;12.40;99.90;;;;;;4591942;19;20088;-29
2023/01/02 12:15:02;;;;;;;17.70;11.83;;;12.40;99.90;;;;;;4592363;19;20019;-28
2023/01/02 12:16:42;;;;;;;17.17;12.27;;;12.40;99.90;;;;;;4590457;19;20025;-28
2023/01/02 12:18:27;;;;;;;21.80;15.57;;;12.40;99.90;;;;;;4591520;19;20554;-28
2023/01/02 12:20:05;;;;;;;21.17;15.43;;;12.50;99.90;;;;;;4589383;19;20057;-29
2023/01/02 12:22:11;;;;;;;17.73;13.50;;;12.40;99.90;;;;;;4590581;19;20039;-28
2023/01/02 12:24:26;;;;;;;16.67;11.30;;;12.50;99.90;;;;;;4590773;19;20408;-28
2023/01/02 12:26:27;;;;;;;19.17;13.45;;;12.50;99.90;;;;;;4591501;19;20014;-30
2023/01/02 12:28:23;;;;;;;35.23;25.57;;;12.50;99.90;;;;;;4589674;19;20011;-29
2023/01/02 12:30:07;;;;;;;;;;;12.50;99.90;;;;;;4590670;19;20014;-29
2023/01/02 12:31:48;;;;;;;50.60;36.03;;;12.50;99.90;;;;;;4589851;19;19930;-31
2023/01/02 12:33:56;;;;;;;25.10;18.90;;;12.50;99.90;;;;;;4590855;19;20014;-27
2023/01/02 12:35:35;;;;;;;24.07;17.03;;;12.50;99.90;;;;;;4591658;19;20350;-31
2023/01/02 12:37:31;;;;;;;19.77;13.98;;;12.60;99.90;;;;;;4591776;19;20010;-29
2023/01/02 12:39:32;;;;;;;17.30;11.07;;;12.60;99.90;;;;;;4591598;19;20457;-31
2023/01/02 12:41:31;;;;;;;17.33;12.85;;;12.50;99.90;;;;;;4591428;19;20018;-32
2023/01/02 12:43:20;;;;;;;20.37;13.63;;;12.60;99.90;;;;;;4590132;19;20015;-28
2023/01/02 12:44:53;;;;;;;26.33;16.47;;;12.60;99.90;;;;;;4591113;19;20023;-28
2023/01/02 12:46:26;;;;;;;35.80;23.90;;;12.50;99.90;;;;;;4590201;19;20477;-29
2023/01/02 12:48:35;;;;;;;23.40;16.13;;;12.50;99.90;;;;;;4590711;19;20015;-29
2023/01/02 12:50:36;;;;;;;33.63;22.03;;;12.50;99.90;;;;;;4590790;19;20358;-30
2023/01/02 12:52:46;;;;;;;20.45;14.52;;;12.50;99.90;;;;;;4591638;19;20357;-33
2023/01/02 12:54:32;;;;;;;17.03;11.67;;;12.50;99.90;;;;;;4589838;19;20014;-32
2023/01/02 12:56:32;;;;;;;16.43;11.77;;;12.50;99.90;;;;;;4590764;19;20047;-34
2023/01/02 12:58:18;;;;;;;22.87;14.53;;;12.50;99.90;;;;;;4589951;19;20015;-28
2023/01/02 13:00:02;;;;;;;15.40;11.70;;;12.60;99.90;;;;;;4591880;19;20059;-29
2023/01/02 13:01:52;;;;;;;16.77;12.23;;;12.50;99.90;;;;;;4590193;19;20019;-31
2023/01/02 13:03:54;;;;;;;14.50;10.73;;;12.60;99.90;;;;;;4591146;19;20222;-28
2023/01/02 13:05:58;;;;;;;16.75;10.93;;;12.50;99.90;;;;;;4590457;19;20043;-30
2023/01/02 13:07:51;;;;;;;17.93;11.33;;;12.50;99.90;;;;;;4588585;19;20450;-28
2023/01/02 13:09:25;;;;;;;16.35;11.50;;;12.50;99.90;;;;;;4588981;19;20366;-34
2023/01/02 13:10:58;;;;;;;14.97;11.60;;;12.50;99.90;;;;;;4588841;19;20047;-33
2023/01/02 13:12:31;;;;;;;16.07;11.30;;;12.50;99.90;;;;;;4588660;19;20029;-29
2023/01/02 13:14:03;;;;;;;18.20;12.97;;;12.50;99.90;;;;;;4588561;19;20497;-29
2023/01/02 13:15:35;;;;;;;18.05;12.88;;;12.50;99.90;;;;;;4588670;19;20025;-32
2023/01/02 13:17:43;;;;;;;14.63;10.70;;;12.50;99.90;;;;;;4589156;19;20027;-30
2023/01/02 13:19:32;;;;;;;15.70;11.17;;;12.50;99.90;;;;;;4588260;19;20609;-31
2023/01/02 13:21:08;;;;;;;14.40;10.70;;;12.60;99.90;;;;;;4587523;19;20011;-30
2023/01/02 13:23:03;;;;;;;14.23;9.77;;;12.70;99.90;;;;;;4588488;19;20418;-28
2023/01/02 13:24:35;;;;;;;15.17;10.30;;;12.80;99.90;;;;;;4588622;19;20027;-31
2023/01/02 13:26:08;;;;;;;13.03;10.00;;;12.80;99.90;;;;;;4588248;19;20017;-30
2023/01/02 13:27:40;;;;;;;14.87;10.33;;;12.90;99.90;;;;;;4588348;19;20034;-29
2023/01/02 13:29:12;;;;;;;13.57;10.20;;;13.00;99.90;;;;;;4589109;19;20006;-30
2023/01/02 13:30:50;;;;;;;13.48;9.60;;;13.00;99.90;;;;;;4587025;19;20174;-30
2023/01/02 13:32:27;;;;;;;14.17;10.13;;;13.10;99.90;;;;;;4588022;19;20078;-31
2023/01/02 13:34:20;;;;;;;13.52;9.85;;;13.10;99.90;;;;;;4588421;19;20022;-29
2023/01/02 13:35:52;;;;;;;14.65;10.23;;;13.10;99.90;;;;;;4588395;19;20031;-32
2023/01/02 13:37:25;;;;;;;20.13;13.82;;;13.20;99.90;;;;;;4588516;19;20010;-28
2023/01/02 13:38:58;;;;;;;16.37;12.17;;;13.20;99.90;;;;;;4587917;19;20015;-28
2023/01/02 13:40:33;;;;;;;24.00;15.60;;;13.20;99.90;;;;;;4587703;19;20015;-28
2023/01/02 13:42:57;;;;;;;16.85;12.00;;;13.30;99.90;;;;;;4588037;19;20461;-33
2023/01/02 13:44:33;;;;;;;15.80;12.40;;;13.30;99.90;;;;;;4588188;19;20112;-29
2023/01/02 13:46:05;;;;;;;15.57;12.52;;;13.30;99.90;;;;;;4589174;19;20022;-28
2023/01/02 13:47:37;;;;;;;17.02;11.43;;;13.30;99.90;;;;;;4588831;19;20345;-29
2023/01/02 13:49:15;;;;;;;16.60;11.05;;;13.30;99.90;;;;;;4588734;19;20006;-28
2023/01/02 13:51:15;;;;;;;15.50;10.52;;;13.30;99.90;;;;;;4589433;19;20010;-31
2023/01/02 13:53:35;;;;;;;14.30;10.25;;;13.30;99.90;;;;;;4588915;19;20030;-28
2023/01/02 13:55:19;;;;;;;16.08;11.30;;;13.40;99.90;;;;;;4587395;19;20374;-30
2023/01/02 13:57:26;;;;;;;13.63;10.55;;;13.40;99.90;;;;;;4587036;19;20386;-29
2023/01/02 13:59:19;;;;;;;17.25;11.35;;;13.40;99.90;;;;;;4587635;19;20489;-30
2023/01/02 14:00:52;;;;;;;14.95;11.35;;;13.40;99.90;;;;;;4586551;19;20006;-29
2023/01/02 14:02:28;;;;;;;14.93;11.35;;;13.40;99.90;;;;;;4588423;19;20015;-30
2023/01/02 14:04:07;;;;;;;15.75;12.05;;;13.40;99.90;;;;;;4587400;19;20040;-28
2023/01/02 14:05:57;;;;;;;16.67;13.73;;;13.40;99.90;;;;;;4587576;19;20018;-29
2023/01/02 14:07:31;;;;;;;16.63;13.75;;;13.40;99.90;;;;;;4587298;19;20055;-29
2023/01/02 14:09:04;;;;;;;18.90;15.27;;;13.40;99.90;;;;;;4587997;19;20006;-31
2023/01/02 14:10:38;;;;;;;21.05;16.88;;;13.40;99.90;;;;;;4587440;19;20006;-28
2023/01/02 14:12:12;;;;;;;19.50;14.90;;;13.40;99.90;;;;;;4587305;19;20026;-27
2023/01/02 14:13:50;;;;;;;20.55;15.98;;;13.40;99.90;;;;;;4587120;19;20017;-32
2023/01/02 14:15:24;;;;;;;16.13;12.68;;;13.40;99.90;;;;;;4587356;19;20002;-29
2023/01/02 14:17:13;;;;;;;15.52;12.40;;;13.40;99.90;;;;;;4587546;19;20524;-28
2023/01/02 14:18:44;;;;;;;17.42;12.82;;;13.50;99.90;;;;;;4587492;19;20014;-27
2023/01/02 14:20:16;;;;;;;14.50;12.50;;;13.50;99.90;;;;;;4586622;19;20015;-28
2023/01/02 14:21:57;;;;;;;15.82;11.95;;;13.50;99.90;;;;;;4587120;19;20376;-27
2023/01/02 14:23:32;;;;;;;18.02;13.35;;;13.50;99.90;;;;;;4587400;19;20014;-27
2023/01/02 14:25:04;;;;;;;17.83;13.20;;;13.40;99.90;;;;;;4588344;19;20010;-31
2023/01/02 14:26:37;;;;;;;;;;;13.50;99.90;;;;;;4588024;19;20015;-29
2023/01/02 14:28:11;;;;;;;17.77;14.27;;;13.50;99.90;;;;;;4587477;19;19915;-30
2023/01/02 14:29:47;;;;;;;16.75;12.80;;;13.50;99.90;;;;;;4587192;19;20035;-33
2023/01/02 14:31:28;;;;;;;17.23;13.25;;;13.60;99.90;;;;;;4587235;19;20010;-29
2023/01/02 14:32:59;;;;;;;17.70;13.18;;;13.80;99.90;;;;;;4587491;19;20440;-33
2023/01/02 14:34:32;;;;;;;16.50;13.00;;;14.00;99.90;;;;;;4587724;19;20023;-31
2023/01/02 14:36:10;;;;;;;18.42;14.35;;;13.90;99.90;;;;;;4589445;19;20010;-29
2023/01/02 14:37:46;;;;;;;19.88;14.77;;;13.80;99.90;;;;;;4588462;19;20467;-32
2023/01/02 14:39:24;;;;;;;17.98;12.55;;;13.70;99.90;;;;;;4589122;19;20015;-32